M I D A S
Marine Information and Data Acquisition System
Tripno 1684 of the Zeeleeuw from 2009-04-29 06:57:01 to 2009-04-29 15:12:57
Back to CruiseResearch ActivitiesStationsMapUnderway DataData graphs

EquipmentUnitsComment
TimeDGPSUTC
LatitudeDGPSDM.mWGS84
LongitudeDGPSDM.mWGS84
HeadingGyrodeg 
SOGDGPSknotsSpeed over ground
COGDGPSdegCourse over ground
DepthEcho soundermeters200 kHz
Missing or incorrect values are displayed as -999
Navigation data collected by the RV Zeeleeuw from 2009-04-29 06:58:23 to 2009-04-29 15:18:10
                                                                                    Next 1000 lines
Time Latitude Longitude Heading SOG COG Depth
2009-04-29 06:58:33 51°13.663 2°55.953 113.4 1.2 287 5.7
2009-04-29 06:58:38 51°13.664 2°55.95 113.4 1.6 294 5.7
2009-04-29 06:58:44 51°13.665 2°55.945 114 1.9 291 5.9
2009-04-29 06:58:49 51°13.666 2°55.941 114.6 2.1 295 -999
2009-04-29 06:58:54 51°13.668 2°55.937 115.2 2.3 294 -999
2009-04-29 06:59:00 51°13.669 2°55.931 115.4 2.5 297 -999
2009-04-29 06:59:06 51°13.671 2°55.925 115.5 2.6 296 -999
2009-04-29 06:59:12 51°13.673 2°55.918 115.5 2.9 297 -999
2009-04-29 06:59:17 51°13.675 2°55.912 115.4 3 297 -999
2009-04-29 06:59:22 51°13.677 2°55.906 115.7 3.3 298 -999
2009-04-29 06:59:27 51°13.68 2°55.899 116.1 3.4 297 -999
2009-04-29 06:59:32 51°13.682 2°55.893 116.2 3.5 298 -999
2009-04-29 06:59:37 51°13.684 2°55.885 116.2 3.6 297 -999
2009-04-29 06:59:42 51°13.686 2°55.878 116.2 3.7 298 -999
2009-04-29 06:59:47 51°13.689 2°55.871 116.2 3.7 297 -999
2009-04-29 06:59:52 51°13.691 2°55.863 116.3 3.7 297 -999
2009-04-29 06:59:57 51°13.693 2°55.856 117.1 3.8 297 -999
2009-04-29 07:00:02 51°13.696 2°55.849 117.7 3.8 298 -999
2009-04-29 07:00:07 51°13.698 2°55.841 118.7 3.9 298 -999
2009-04-29 07:00:12 51°13.701 2°55.833 119.6 3.9 298 -999
2009-04-29 07:00:17 51°13.703 2°55.826 120.4 3.9 298 -999
2009-04-29 07:00:22 51°13.706 2°55.818 121 3.9 299 -999
2009-04-29 07:00:27 51°13.708 2°55.811 122 3.9 299 -999
2009-04-29 07:00:32 51°13.711 2°55.803 123.7 4 301 -999
2009-04-29 07:00:37 51°13.714 2°55.796 125 4 302 -999
2009-04-29 07:00:42 51°13.717 2°55.789 127.2 4 304 -999
2009-04-29 07:00:47 51°13.72 2°55.781 129.5 4.1 306 -999
2009-04-29 07:00:52 51°13.724 2°55.774 131.9 4.2 309 -999
2009-04-29 07:00:57 51°13.728 2°55.767 133.4 4.3 309 -999
2009-04-29 07:01:02 51°13.732 2°55.76 135.2 4.3 312 -999
2009-04-29 07:01:07 51°13.736 2°55.752 137 4.4 314 -999
2009-04-29 07:01:12 51°13.74 2°55.746 139.3 4.4 316 -999
2009-04-29 07:01:17 51°13.745 2°55.739 140.9 4.4 317 -999
2009-04-29 07:01:22 51°13.749 2°55.732 142.8 4.4 319 -999
2009-04-29 07:01:27 51°13.754 2°55.726 144.2 4.4 321 -999
2009-04-29 07:01:32 51°13.759 2°55.72 145.5 4.4 323 -999
2009-04-29 07:01:37 51°13.764 2°55.714 146.6 4.4 324 -999
2009-04-29 07:01:42 51°13.769 2°55.709 147.8 4.4 326 -999
2009-04-29 07:01:47 51°13.774 2°55.704 148.5 4.4 326 -999
2009-04-29 07:01:52 51°13.779 2°55.698 148.9 4.4 327 -999
2009-04-29 07:01:57 51°13.784 2°55.693 149 4.5 328 -999
2009-04-29 07:02:02 51°13.789 2°55.688 149.5 4.5 328 -999
2009-04-29 07:02:07 51°13.795 2°55.683 150 4.5 330 -999
2009-04-29 07:02:12 51°13.8 2°55.677 150.4 4.5 329 -999
2009-04-29 07:02:17 51°13.806 2°55.673 151.5 4.4 330 -999
2009-04-29 07:02:22 51°13.811 2°55.668 152.3 4.4 331 -999
2009-04-29 07:02:27 51°13.816 2°55.664 153.3 4.4 332 -999
2009-04-29 07:02:32 51°13.821 2°55.659 154.5 4.3 332 -999
2009-04-29 07:02:37 51°13.827 2°55.655 155.6 4.3 333 -999
2009-04-29 07:02:42 51°13.832 2°55.651 157 4.3 334 -999
2009-04-29 07:02:47 51°13.838 2°55.647 158.7 4.3 336 -999
2009-04-29 07:02:52 51°13.843 2°55.643 160.5 4.2 337 -999
2009-04-29 07:02:57 51°13.848 2°55.64 162.7 4.2 339 -999
2009-04-29 07:03:02 51°13.854 2°55.637 165.1 4.2 341 -999
2009-04-29 07:03:07 51°13.86 2°55.634 167.7 4.2 344 -999
2009-04-29 07:03:12 51°13.865 2°55.632 170.7 4.1 346 -999
2009-04-29 07:03:17 51°13.871 2°55.63 173.6 4.1 348 -999
2009-04-29 07:03:22 51°13.876 2°55.628 176.7 4.1 352 -999
2009-04-29 07:03:27 51°13.882 2°55.627 179.7 4.1 354 -999
2009-04-29 07:03:32 51°13.887 2°55.627 183.2 4 357 -999
2009-04-29 07:03:37 51°13.893 2°55.627 185.6 4 359 -999
2009-04-29 07:03:42 51°13.899 2°55.627 188.7 3.9 3 -999
2009-04-29 07:03:47 51°13.904 2°55.628 191.8 3.9 5 -999
2009-04-29 07:03:52 51°13.909 2°55.629 195.8 3.9 10 -999
2009-04-29 07:03:57 51°13.914 2°55.631 198.6 3.8 12 -999
2009-04-29 07:04:02 51°13.92 2°55.634 202.3 3.8 17 -999
2009-04-29 07:04:07 51°13.925 2°55.636 206 3.8 20 -999
2009-04-29 07:04:12 51°13.929 2°55.639 210.5 3.5 23 -999
2009-04-29 07:04:17 51°13.933 2°55.643 213.8 3.3 25 -999
2009-04-29 07:04:22 51°13.937 2°55.646 216 2.9 28 -999
2009-04-29 07:04:27 51°13.94 2°55.649 218.3 2.4 30 -999
2009-04-29 07:04:32 51°13.942 2°55.651 221.2 1.8 29 -999
2009-04-29 07:04:37 51°13.944 2°55.653 225.1 1.3 31 -999
2009-04-29 07:04:42 51°13.945 2°55.653 228.2 0.8 22 -999
2009-04-29 07:04:47 51°13.945 2°55.653 232.9 0.4 330 -999
2009-04-29 07:04:52 51°13.945 2°55.652 238.1 0.7 275 -999
2009-04-29 07:04:57 51°13.946 2°55.649 242.9 1 268 -999
2009-04-29 07:05:02 51°13.946 2°55.646 249.7 1.5 267 10.6
2009-04-29 07:05:07 51°13.946 2°55.641 255.4 2 271 10.6
2009-04-29 07:05:12 51°13.946 2°55.636 264.3 2.4 275 10.6
2009-04-29 07:05:17 51°13.947 2°55.63 270.1 2.7 282 4.5
2009-04-29 07:05:22 51°13.948 2°55.624 279.5 3.2 289 -999
2009-04-29 07:05:27 51°13.95 2°55.617 286 3.4 296 5
2009-04-29 07:05:32 51°13.953 2°55.61 294.1 3.8 305 4.6
2009-04-29 07:05:37 51°13.956 2°55.603 300.6 4 310 11
2009-04-29 07:05:41 51°13.96 2°55.598 308.6 4.4 316 10.8
2009-04-29 07:05:46 51°13.965 2°55.591 314.2 4.7 319 10.5
2009-04-29 07:05:51 51°13.97 2°55.584 319.8 5 321 10.6
2009-04-29 07:05:56 51°13.976 2°55.577 321.9 5.3 321 10.5
2009-04-29 07:06:01 51°13.982 2°55.57 323.4 5.6 324 10.5
2009-04-29 07:06:06 51°13.988 2°55.562 325.2 5.8 324 10.5
2009-04-29 07:06:11 51°13.995 2°55.554 325.8 6 324 10.5
2009-04-29 07:06:15 51°14.001 2°55.548 326.1 6.2 325 10.4
2009-04-29 07:06:20 51°14.008 2°55.54 326.7 6.4 326 10.4
2009-04-29 07:06:25 51°14.015 2°55.533 327.4 6.5 327 10.2
2009-04-29 07:06:29 51°14.021 2°55.526 328.5 6.6 326 10.3
2009-04-29 07:06:35 51°14.031 2°55.516 328.5 6.8 326 10.4
2009-04-29 07:06:40 51°14.039 2°55.508 328.5 6.9 327 10.2
2009-04-29 07:06:44 51°14.045 2°55.501 329 7 327 10.3
2009-04-29 07:06:49 51°14.053 2°55.493 329.3 7 327 10.3
2009-04-29 07:06:54 51°14.061 2°55.484 329.4 7.1 327 10.3
2009-04-29 07:06:59 51°14.07 2°55.476 329.3 7.1 327 10.3
2009-04-29 07:07:04 51°14.078 2°55.467 329.6 7.2 328 10.4
2009-04-29 07:07:09 51°14.086 2°55.458 329.9 7.2 328 10.3
2009-04-29 07:07:13 51°14.093 2°55.452 330.3 7.2 328 10.4
2009-04-29 07:07:19 51°14.103 2°55.441 330.5 7.2 327 10.3
2009-04-29 07:07:23 51°14.11 2°55.434 330.1 7.3 327 10.3
2009-04-29 07:07:29 51°14.12 2°55.423 329.5 7.3 327 10.3
2009-04-29 07:07:33 51°14.127 2°55.416 329.7 7.4 328 10.2
2009-04-29 07:07:39 51°14.138 2°55.406 330.7 7.4 328 10.3
2009-04-29 07:07:44 51°14.146 2°55.398 331.1 7.4 329 10.2
2009-04-29 07:07:49 51°14.155 2°55.389 330.7 7.4 328 -999
2009-04-29 07:07:54 51°14.164 2°55.38 330.4 7.4 328 10.2
2009-04-29 07:07:59 51°14.173 2°55.371 330.2 7.5 327 10.2
2009-04-29 07:08:04 51°14.181 2°55.362 329.1 7.5 325 10.3
2009-04-29 07:08:09 51°14.19 2°55.352 327.4 7.5 324 10.3
2009-04-29 07:08:13 51°14.196 2°55.344 326.6 7.5 323 10.3
2009-04-29 07:08:18 51°14.205 2°55.334 325.8 7.6 323 10.3
2009-04-29 07:08:23 51°14.214 2°55.324 325.1 7.8 322 10.4
2009-04-29 07:08:29 51°14.223 2°55.311 323.8 7.8 320 10.3
2009-04-29 07:08:33 51°14.23 2°55.302 322.4 7.9 319 10.3
2009-04-29 07:08:38 51°14.238 2°55.29 320.9 8 317 10.2
2009-04-29 07:08:43 51°14.246 2°55.277 319.1 8.1 316 -999
2009-04-29 07:08:48 51°14.254 2°55.264 317.7 8.1 315 10.2
2009-04-29 07:08:53 51°14.262 2°55.251 316.5 8.2 314 10.2
2009-04-29 07:08:59 51°14.271 2°55.235 315.4 8.3 313 10.5
2009-04-29 07:09:03 51°14.277 2°55.224 315.1 8.4 313 10.2
2009-04-29 07:09:08 51°14.285 2°55.211 315 8.4 313 10.1
2009-04-29 07:09:13 51°14.293 2°55.197 315 8.5 313 10.1
2009-04-29 07:09:19 51°14.302 2°55.18 314.5 8.5 312 10.2
2009-04-29 07:09:23 51°14.309 2°55.169 313.9 8.6 311 10.2
2009-04-29 07:09:28 51°14.316 2°55.154 313 8.7 310 10.3
2009-04-29 07:09:33 51°14.324 2°55.139 311.7 8.8 308 10.3
2009-04-29 07:09:39 51°14.333 2°55.121 310.7 8.9 308 10.4
2009-04-29 07:09:43 51°14.339 2°55.108 310.5 9 308 10.4
2009-04-29 07:09:48 51°14.347 2°55.092 310.7 9 309 10.3
2009-04-29 07:09:53 51°14.355 2°55.077 311.5 9 309 10.4
2009-04-29 07:09:59 51°14.364 2°55.058 312 9.1 309 10.3
2009-04-29 07:10:04 51°14.372 2°55.042 311.5 9.1 307 10.2
2009-04-29 07:10:08 51°14.378 2°55.029 310.4 9.2 306 10
2009-04-29 07:10:13 51°14.385 2°55.012 308.6 9.2 303 10
2009-04-29 07:10:18 51°14.392 2°54.995 306.6 9.2 302 10
2009-04-29 07:10:24 51°14.4 2°54.974 305 9.3 300 10.1
2009-04-29 07:10:29 51°14.406 2°54.956 303.5 9.3 299 10.1
2009-04-29 07:10:33 51°14.411 2°54.942 302.1 9.3 298 10.2
2009-04-29 07:10:38 51°14.417 2°54.923 301.4 9.4 297 10.3
2009-04-29 07:10:43 51°14.423 2°54.904 301.1 9.5 297 10.4
2009-04-29 07:10:48 51°14.43 2°54.886 301.1 9.6 297 10.4
2009-04-29 07:10:53 51°14.436 2°54.867 301.1 9.6 296 10.5
2009-04-29 07:10:58 51°14.443 2°54.848 301.1 9.7 296 10.5
2009-04-29 07:11:03 51°14.449 2°54.828 301.1 9.8 296 10.5
2009-04-29 07:11:08 51°14.455 2°54.809 301.6 9.8 297 10.5
2009-04-29 07:11:13 51°14.46 2°54.789 302 10 296 10.5
2009-04-29 07:11:18 51°14.466 2°54.768 302 10.1 296 10.6
2009-04-29 07:11:23 51°14.472 2°54.748 302 10.1 296 10.5
2009-04-29 07:11:28 51°14.478 2°54.728 302.3 10.2 296 10.5
2009-04-29 07:11:33 51°14.485 2°54.707 302.4 10.3 296 10.5
2009-04-29 07:11:39 51°14.492 2°54.683 302.6 10.4 296 10.5
2009-04-29 07:11:43 51°14.497 2°54.666 302.8 10.5 297 10.5
2009-04-29 07:11:48 51°14.504 2°54.645 303.2 10.5 297 10.4
2009-04-29 07:11:53 51°14.51 2°54.624 303.4 10.6 297 10.5
2009-04-29 07:11:58 51°14.517 2°54.603 303.4 10.7 297 10.4
2009-04-29 07:12:04 51°14.525 2°54.578 303.4 10.8 297 10.5
2009-04-29 07:12:08 51°14.53 2°54.56 303.5 10.9 297 10.5
2009-04-29 07:12:13 51°14.537 2°54.539 303.5 10.9 297 10.5
2009-04-29 07:12:18 51°14.544 2°54.517 303.5 11 296 10.4
2009-04-29 07:12:23 51°14.55 2°54.495 303.1 11.1 296 10.6
2009-04-29 07:12:29 51°14.558 2°54.468 302.9 11.1 296 10.5
2009-04-29 07:12:33 51°14.564 2°54.45 302.7 11.1 296 10.5
2009-04-29 07:12:38 51°14.57 2°54.428 303 11.2 296 10.5
2009-04-29 07:12:44 51°14.578 2°54.402 303 11.2 296 10.5
2009-04-29 07:12:48 51°14.584 2°54.384 302.7 11.2 295 10.4
2009-04-29 07:12:53 51°14.59 2°54.362 302.3 11.2 296 10.4
2009-04-29 07:12:58 51°14.597 2°54.339 302.3 11.2 296 10.4
2009-04-29 07:13:03 51°14.604 2°54.317 302.7 11.2 296 10.4
2009-04-29 07:13:09 51°14.612 2°54.29 303 11.2 296 10.5
2009-04-29 07:13:13 51°14.618 2°54.273 302.7 11.2 296 10.6
2009-04-29 07:13:19 51°14.626 2°54.246 302.4 11.2 296 10.6
2009-04-29 07:13:24 51°14.632 2°54.223 302 11.2 296 10.8
2009-04-29 07:13:28 51°14.638 2°54.206 301.6 11.2 295 10.7
2009-04-29 07:13:33 51°14.644 2°54.183 301.1 11.2 295 10.9
2009-04-29 07:13:39 51°14.652 2°54.156 300.6 11.2 295 10.8
2009-04-29 07:13:43 51°14.657 2°54.138 300.2 11.1 295 10.8
2009-04-29 07:13:49 51°14.665 2°54.111 300.2 11.1 294 10.9
2009-04-29 07:13:53 51°14.67 2°54.094 300.1 11.1 295 10.9
2009-04-29 07:13:58 51°14.676 2°54.071 299.8 11.2 294 10.9
2009-04-29 07:14:04 51°14.684 2°54.044 299.8 11.2 295 10.8
2009-04-29 07:14:08 51°14.689 2°54.026 300.1 11.2 295 10.7
2009-04-29 07:14:13 51°14.696 2°54.004 300.4 11.1 295 10.7
2009-04-29 07:14:19 51°14.704 2°53.977 301.2 11.2 296 10.6
2009-04-29 07:14:23 51°14.709 2°53.96 301.8 11.2 297 10.6
2009-04-29 07:14:29 51°14.718 2°53.933 302.2 11.2 297 10.5
2009-04-29 07:14:33 51°14.723 2°53.916 302.2 11.2 297 10.3
2009-04-29 07:14:38 51°14.73 2°53.894 302.2 11.1 297 10.2
2009-04-29 07:14:44 51°14.739 2°53.868 302.4 11.1 298 10.1
2009-04-29 07:14:48 51°14.745 2°53.85 303 11.1 298 10
2009-04-29 07:14:53 51°14.752 2°53.828 303.2 11.1 298 10
2009-04-29 07:14:58 51°14.759 2°53.807 303.3 11.2 298 10
2009-04-29 07:15:04 51°14.768 2°53.781 303.3 11.2 298 9.9
2009-04-29 07:15:09 51°14.776 2°53.759 303.5 11.1 298 9.9
2009-04-29 07:15:13 51°14.781 2°53.742 303.5 11.1 299 10
2009-04-29 07:15:18 51°14.789 2°53.72 303.6 11.2 298 9.9
2009-04-29 07:15:23 51°14.796 2°53.698 303.1 11.2 298 9.9
2009-04-29 07:15:28 51°14.804 2°53.677 303.4 11.2 299 9.9
2009-04-29 07:15:33 51°14.811 2°53.655 303.9 11.3 300 9.9
2009-04-29 07:15:38 51°14.819 2°53.633 304.7 11.3 300 9.9
2009-04-29 07:15:43 51°14.827 2°53.612 305.1 11.3 300 9.9
2009-04-29 07:15:48 51°14.835 2°53.59 305.6 11.4 301 9.9
2009-04-29 07:15:53 51°14.843 2°53.568 305.7 11.4 300 9.9
2009-04-29 07:15:58 51°14.851 2°53.546 305 11.4 299 9.9
2009-04-29 07:16:04 51°14.86 2°53.52 304.4 11.5 300 9.8
2009-04-29 07:16:08 51°14.866 2°53.502 304.2 11.6 299 9.7
2009-04-29 07:16:13 51°14.874 2°53.48 304 11.6 299 9.7
2009-04-29 07:16:19 51°14.884 2°53.453 304 11.6 300 9.7
2009-04-29 07:16:23 51°14.89 2°53.435 304.3 11.7 299 9.7
2009-04-29 07:16:28 51°14.898 2°53.412 304 11.7 298 9.7
2009-04-29 07:16:33 51°14.906 2°53.389 303.1 11.8 298 9.7
2009-04-29 07:16:39 51°14.915 2°53.362 302.7 11.8 297 9.7
2009-04-29 07:16:44 51°14.922 2°53.338 301.8 11.8 297 9.7
2009-04-29 07:16:48 51°14.928 2°53.32 301.4 11.8 296 9.7
2009-04-29 07:16:53 51°14.935 2°53.296 301 11.8 296 9.8
2009-04-29 07:16:58 51°14.943 2°53.273 300.5 11.9 296 9.7
2009-04-29 07:17:03 51°14.95 2°53.249 300.3 11.9 296 9.7
2009-04-29 07:17:09 51°14.959 2°53.221 301.1 11.9 297 9.7
2009-04-29 07:17:13 51°14.965 2°53.202 301.6 11.9 297 9.9
2009-04-29 07:17:18 51°14.972 2°53.179 301.7 11.9 297 9.8
2009-04-29 07:17:23 51°14.98 2°53.156 301.9 11.9 298 9.8
2009-04-29 07:17:29 51°14.989 2°53.127 302.2 11.9 298 9.8
2009-04-29 07:17:33 51°14.995 2°53.109 302.4 11.9 298 9.7
2009-04-29 07:17:38 51°15.003 2°53.086 302.4 11.9 298 9.8
2009-04-29 07:17:43 51°15.011 2°53.062 302.6 11.9 298 9.8
2009-04-29 07:17:49 51°15.02 2°53.034 302.7 11.9 297 9.8
2009-04-29 07:17:53 51°15.026 2°53.016 302.5 11.9 297 9.9
2009-04-29 07:17:58 51°15.033 2°52.992 301.8 11.9 296 9.9
2009-04-29 07:18:03 51°15.04 2°52.968 301.4 11.9 296 10
2009-04-29 07:18:08 51°15.048 2°52.945 301.4 11.9 297 10
2009-04-29 07:18:13 51°15.055 2°52.921 302.1 11.9 297 10.1
2009-04-29 07:18:18 51°15.063 2°52.898 302.8 11.9 297 10
2009-04-29 07:18:24 51°15.072 2°52.87 303 11.9 297 10.1
2009-04-29 07:18:28 51°15.078 2°52.851 303.2 11.9 297 10.1
2009-04-29 07:18:33 51°15.085 2°52.828 303.2 11.9 297 10.1
2009-04-29 07:18:39 51°15.094 2°52.8 303 11.9 297 10.1
2009-04-29 07:18:43 51°15.1 2°52.782 302.9 11.9 297 10.1
2009-04-29 07:18:48 51°15.108 2°52.758 303 11.9 297 10.2
2009-04-29 07:18:53 51°15.116 2°52.735 303.1 11.9 297 10.3
2009-04-29 07:18:59 51°15.124 2°52.707 303.1 11.9 297 10.4
2009-04-29 07:19:04 51°15.132 2°52.683 303 11.9 297 10.3
2009-04-29 07:19:08 51°15.138 2°52.664 302.7 11.9 296 10.3
2009-04-29 07:19:13 51°15.145 2°52.641 302.4 11.9 296 10.3
2009-04-29 07:19:18 51°15.153 2°52.617 302.3 11.9 297 10.4
2009-04-29 07:19:24 51°15.161 2°52.589 302.3 11.9 296 10.4
2009-04-29 07:19:29 51°15.168 2°52.565 301.8 11.9 295 10.4
2009-04-29 07:19:33 51°15.174 2°52.546 300.9 11.9 295 10.4
2009-04-29 07:19:38 51°15.181 2°52.522 300.6 11.9 295 10.5
2009-04-29 07:19:43 51°15.187 2°52.498 300.1 12 294 10.5
2009-04-29 07:19:49 51°15.196 2°52.469 299.9 12.1 295 10.5
2009-04-29 07:19:53 51°15.201 2°52.449 299.8 12.3 294 10.6
2009-04-29 07:19:58 51°15.209 2°52.424 299.5 12.4 294 10.6
2009-04-29 07:20:03 51°15.216 2°52.399 299.8 12.4 295 10.6
2009-04-29 07:20:08 51°15.223 2°52.374 300.8 12.5 295 10.6
2009-04-29 07:20:13 51°15.231 2°52.349 300.8 12.6 295 10.7
2009-04-29 07:20:18 51°15.238 2°52.324 301.3 12.6 296 10.7
2009-04-29 07:20:23 51°15.246 2°52.299 301.7 12.6 296 10.8
2009-04-29 07:20:28 51°15.254 2°52.274 302 12.6 297 10.8
2009-04-29 07:20:33 51°15.261 2°52.249 302.1 12.7 296 10.8
2009-04-29 07:20:39 51°15.271 2°52.219 302 12.7 296 10.9
2009-04-29 07:20:43 51°15.277 2°52.199 301.9 12.7 296 10.9
2009-04-29 07:20:48 51°15.285 2°52.173 301.9 12.7 296 11
2009-04-29 07:20:53 51°15.293 2°52.148 302.1 12.7 297 11
2009-04-29 07:20:58 51°15.3 2°52.123 302.3 12.7 296 11.1
2009-04-29 07:21:04 51°15.31 2°52.093 302.2 12.7 296 11.1
2009-04-29 07:21:08 51°15.316 2°52.073 302.2 12.7 297 11.2
2009-04-29 07:21:13 51°15.324 2°52.047 302.4 12.7 297 11.3
2009-04-29 07:21:19 51°15.334 2°52.017 302.5 12.7 297 11.3
2009-04-29 07:21:23 51°15.34 2°51.997 302.2 12.7 296 11.3
2009-04-29 07:21:29 51°15.35 2°51.967 302 12.7 297 11.3
2009-04-29 07:21:33 51°15.356 2°51.947 302 12.7 297 11.4
2009-04-29 07:21:38 51°15.364 2°51.922 302 12.7 297 11.4
2009-04-29 07:21:44 51°15.373 2°51.892 302 12.7 296 11.5
2009-04-29 07:21:48 51°15.379 2°51.872 302 12.7 296 11.5
2009-04-29 07:21:53 51°15.387 2°51.847 301.9 12.7 296 11.6
2009-04-29 07:21:58 51°15.395 2°51.821 301.6 12.7 296 11.6
2009-04-29 07:22:03 51°15.403 2°51.796 301.4 12.7 296 11.7
2009-04-29 07:22:09 51°15.412 2°51.766 301.6 12.7 296 11.7
2009-04-29 07:22:13 51°15.418 2°51.746 301.6 12.7 296 11.8
2009-04-29 07:22:18 51°15.426 2°51.721 301.8 12.7 297 11.7
2009-04-29 07:22:23 51°15.434 2°51.696 302 12.7 297 11.8
2009-04-29 07:22:29 51°15.444 2°51.666 301.8 12.7 297 11.8
2009-04-29 07:22:33 51°15.45 2°51.646 301.7 12.7 297 11.9
2009-04-29 07:22:39 51°15.46 2°51.615 301.7 12.8 297 11.9
2009-04-29 07:22:43 51°15.466 2°51.595 301.6 12.8 297 12
2009-04-29 07:22:48 51°15.474 2°51.57 301.5 12.8 297 12
2009-04-29 07:22:53 51°15.482 2°51.545 301.5 12.8 297 12
2009-04-29 07:22:58 51°15.49 2°51.519 301.6 12.8 297 12.1
2009-04-29 07:23:04 51°15.5 2°51.489 301.7 12.9 297 12.1
2009-04-29 07:23:08 51°15.506 2°51.469 301.7 12.9 297 12.1
2009-04-29 07:23:13 51°15.514 2°51.444 301.7 12.9 297 12.1
2009-04-29 07:23:19 51°15.524 2°51.413 301.4 12.9 297 12.1
2009-04-29 07:23:23 51°15.53 2°51.393 301.5 12.8 297 12.1
2009-04-29 07:23:29 51°15.54 2°51.362 301.5 12.9 297 12.2
2009-04-29 07:23:33 51°15.546 2°51.342 301.6 12.9 297 12.2
2009-04-29 07:23:38 51°15.555 2°51.317 301.7 12.8 297 12.2
2009-04-29 07:23:44 51°15.564 2°51.287 301.8 12.8 297 12.2
2009-04-29 07:23:48 51°15.571 2°51.266 301.6 12.8 297 12.2
2009-04-29 07:23:53 51°15.579 2°51.241 301.6 12.8 297 12.2
2009-04-29 07:23:58 51°15.587 2°51.216 301.5 12.8 296 12.3
2009-04-29 07:24:04 51°15.597 2°51.185 301.4 12.8 297 12.3
2009-04-29 07:24:09 51°15.605 2°51.16 301.3 12.8 296 12.3
2009-04-29 07:24:13 51°15.611 2°51.14 301.2 12.8 297 12.3
2009-04-29 07:24:18 51°15.619 2°51.114 301.4 12.8 297 12.3
2009-04-29 07:24:23 51°15.627 2°51.089 301.5 12.8 297 12.3
2009-04-29 07:24:29 51°15.637 2°51.059 301.6 12.8 297 12.3
2009-04-29 07:24:33 51°15.643 2°51.038 301.3 12.8 297 12.3
2009-04-29 07:24:38 51°15.651 2°51.013 301.4 12.8 297 12.4
2009-04-29 07:24:43 51°15.659 2°50.988 301.7 12.8 297 12.4
2009-04-29 07:24:48 51°15.667 2°50.963 302 12.8 297 12.4
2009-04-29 07:24:53 51°15.675 2°50.937 301.7 12.8 297 12.3
2009-04-29 07:24:58 51°15.683 2°50.912 301.3 12.8 297 12.4
2009-04-29 07:25:04 51°15.693 2°50.882 301.3 12.8 296 12.4
2009-04-29 07:25:08 51°15.699 2°50.862 301.4 12.8 297 12.4
2009-04-29 07:25:13 51°15.707 2°50.836 301.5 12.8 296 12.4
2009-04-29 07:25:19 51°15.716 2°50.805 301.3 12.8 297 12.4
2009-04-29 07:25:23 51°15.723 2°50.785 301.2 12.8 296 12.4
2009-04-29 07:25:29 51°15.732 2°50.755 301.4 12.8 297 12.4
2009-04-29 07:25:33 51°15.738 2°50.734 301.6 12.8 296 12.3
2009-04-29 07:25:39 51°15.748 2°50.704 301.2 12.8 296 12.4
2009-04-29 07:25:43 51°15.754 2°50.684 301.2 12.8 297 12.4
2009-04-29 07:25:48 51°15.762 2°50.659 301.3 12.7 297 12.4
2009-04-29 07:25:53 51°15.77 2°50.634 301.5 12.8 297 12.5
2009-04-29 07:25:59 51°15.78 2°50.603 301.4 12.8 297 12.4
2009-04-29 07:26:04 51°15.789 2°50.579 302.1 12.7 300 12.4
2009-04-29 07:26:09 51°15.797 2°50.555 304.1 12.7 299 12.4
2009-04-29 07:26:13 51°15.804 2°50.535 304.4 12.7 300 12.4
2009-04-29 07:26:18 51°15.813 2°50.511 305.3 12.7 301 12.4
2009-04-29 07:26:23 51°15.822 2°50.487 305.5 12.7 301 12.3
2009-04-29 07:26:29 51°15.833 2°50.458 305.8 12.7 302 12.2
2009-04-29 07:26:33 51°15.84 2°50.439 306.2 12.7 301 12.3
2009-04-29 07:26:38 51°15.85 2°50.415 306.1 12.7 302 12.2
2009-04-29 07:26:43 51°15.859 2°50.392 306.2 12.6 302 12.1
2009-04-29 07:26:49 51°15.87 2°50.363 306.3 12.6 303 11.8
2009-04-29 07:26:53 51°15.879 2°50.346 309.6 12.5 309 11.6
2009-04-29 07:26:58 51°15.89 2°50.324 312.2 12.5 306 11.3
2009-04-29 07:27:03 51°15.901 2°50.304 313.5 12.4 312 11
2009-04-29 07:27:09 51°15.914 2°50.279 315.6 12.4 311 10.7
2009-04-29 07:27:13 51°15.924 2°50.264 319.4 12.3 318 10.5
2009-04-29 07:27:18 51°15.937 2°50.246 322.1 12.3 316 10.3
2009-04-29 07:27:24 51°15.953 2°50.226 323.9 12.2 322 10.1
2009-04-29 07:27:28 51°15.964 2°50.213 326.7 12.2 321 9.9
2009-04-29 07:27:33 51°15.977 2°50.197 328.3 12.2 324 9.8
2009-04-29 07:27:39 51°15.994 2°50.179 330.5 12.2 326 9.7
2009-04-29 07:27:43 51°16.005 2°50.167 332.1 12.1 327 9.6
2009-04-29 07:27:48 51°16.02 2°50.154 334 12.1 329 9.6
2009-04-29 07:27:53 51°16.034 2°50.139 334.8 12.2 329 9.5
2009-04-29 07:27:59 51°16.052 2°50.124 336.3 12.2 331 9.6
2009-04-29 07:28:04 51°16.067 2°50.11 336.9 12.2 331 9.7
2009-04-29 07:28:08 51°16.078 2°50.1 337.6 12.2 332 9.8
2009-04-29 07:28:13 51°16.093 2°50.088 338 12.2 332 9.8
2009-04-29 07:28:18 51°16.109 2°50.076 338.5 12.2 333 9.9
2009-04-29 07:28:23 51°16.124 2°50.063 339.2 12.2 334 10.1
2009-04-29 07:28:29 51°16.142 2°50.049 339.9 12.2 334 10.1
2009-04-29 07:28:33 51°16.154 2°50.04 340.4 12.2 335 10.1
2009-04-29 07:28:38 51°16.169 2°50.028 340.7 12.3 335 10.2
2009-04-29 07:28:44 51°16.188 2°50.014 341.1 12.3 335 10.3
2009-04-29 07:28:49 51°16.203 2°50.003 341.2 12.3 335 10.4
2009-04-29 07:28:53 51°16.215 2°49.993 340.8 12.2 335 10.4
2009-04-29 07:28:58 51°16.231 2°49.982 340.6 12.3 334 10.4
2009-04-29 07:29:03 51°16.246 2°49.97 340.4 12.3 334 10.5
2009-04-29 07:29:09 51°16.264 2°49.956 340.4 12.3 334 10.5
2009-04-29 07:29:13 51°16.277 2°49.947 340.4 12.3 335 10.4
2009-04-29 07:29:19 51°16.295 2°49.932 340.4 12.3 335 10.5
2009-04-29 07:29:24 51°16.31 2°49.921 340.4 12.3 334 10.4
2009-04-29 07:29:28 51°16.323 2°49.911 340.1 12.3 335 10.5
2009-04-29 07:29:33 51°16.338 2°49.9 340.1 12.3 334 10.5
2009-04-29 07:29:39 51°16.357 2°49.886 340.5 12.3 336 10.4
2009-04-29 07:29:43 51°16.369 2°49.878 341.5 12.3 336 10.4
2009-04-29 07:29:49 51°16.388 2°49.864 341.7 12.3 336 10.7
2009-04-29 07:29:53 51°16.4 2°49.855 341.7 12.2 336 10.7
2009-04-29 07:29:59 51°16.419 2°49.843 342 12.2 337 10.7
2009-04-29 07:30:04 51°16.434 2°49.832 342.3 12.2 336 10.8
2009-04-29 07:30:08 51°16.447 2°49.824 342.4 12.2 337 10.9
2009-04-29 07:30:13 51°16.462 2°49.813 342.4 12.2 336 11
2009-04-29 07:30:19 51°16.481 2°49.799 342.2 12.2 337 11.3
2009-04-29 07:30:23 51°16.494 2°49.79 342.5 12.3 336 11.5
2009-04-29 07:30:29 51°16.513 2°49.776 341.5 12.3 335 11.8
2009-04-29 07:30:33 51°16.525 2°49.767 341.2 12.3 336 12.2
2009-04-29 07:30:38 51°16.541 2°49.755 341 12.4 335 12.5
2009-04-29 07:30:44 51°16.559 2°49.742 340.5 12.4 334 12.7
2009-04-29 07:30:48 51°16.572 2°49.732 339.8 12.4 334 13.3
2009-04-29 07:30:53 51°16.588 2°49.721 339.3 12.4 333 13.5
2009-04-29 07:30:58 51°16.603 2°49.707 338.9 12.4 333 13.7
2009-04-29 07:31:03 51°16.617 2°49.694 338.5 12.4 333 13.8
2009-04-29 07:31:09 51°16.636 2°49.679 338.2 12.4 332 13.8
2009-04-29 07:31:13 51°16.648 2°49.668 338.1 12.4 332 13.7
2009-04-29 07:31:18 51°16.663 2°49.656 337.8 12.4 331 13.4
2009-04-29 07:31:23 51°16.678 2°49.642 337.6 12.3 331 12.7
2009-04-29 07:31:28 51°16.692 2°49.629 337.4 12.3 330 13.1
2009-04-29 07:31:33 51°16.707 2°49.616 337.2 12.2 331 13.1
2009-04-29 07:31:39 51°16.725 2°49.6 337.7 12.2 331 12.5
2009-04-29 07:31:43 51°16.737 2°49.59 337.6 12.2 331 11.7
2009-04-29 07:31:48 51°16.752 2°49.577 337.6 12.2 331 11.1
2009-04-29 07:31:53 51°16.766 2°49.564 337.6 12.1 330 10.5
2009-04-29 07:31:58 51°16.781 2°49.55 337.3 12.1 330 9.8
2009-04-29 07:32:04 51°16.798 2°49.535 336.9 12 330 9.2
2009-04-29 07:32:08 51°16.81 2°49.524 336.9 11.9 330 8.8
2009-04-29 07:32:13 51°16.824 2°49.511 336.9 11.9 330 8.6
2009-04-29 07:32:19 51°16.841 2°49.495 336.9 11.8 331 8.4
2009-04-29 07:32:23 51°16.853 2°49.485 337.3 11.9 330 8.8
2009-04-29 07:32:29 51°16.87 2°49.469 337 11.9 330 8.8
2009-04-29 07:32:33 51°16.881 2°49.458 336.3 12 330 8.6
2009-04-29 07:32:39 51°16.898 2°49.442 335.4 12 328 8.6
2009-04-29 07:32:44 51°16.913 2°49.428 334.9 12 329 9.2
2009-04-29 07:32:48 51°16.924 2°49.416 334.5 12.1 327 9.5
2009-04-29 07:32:53 51°16.938 2°49.402 334 12.2 329 9.4
2009-04-29 07:32:58 51°16.952 2°49.387 334 12.2 327 9.7
2009-04-29 07:33:04 51°16.97 2°49.371 333.8 12.2 328 9.4
2009-04-29 07:33:09 51°16.984 2°49.356 334 12.2 328 9.7
2009-04-29 07:33:13 51°16.995 2°49.345 334 12.2 328 10.1
2009-04-29 07:33:18 51°17.01 2°49.331 334 12.2 329 10.3
2009-04-29 07:33:23 51°17.024 2°49.316 334.3 12.3 328 10.5
2009-04-29 07:33:29 51°17.042 2°49.3 334.4 12.2 329 10.7
2009-04-29 07:33:33 51°17.054 2°49.288 334.4 12.3 328 10.7
2009-04-29 07:33:38 51°17.068 2°49.274 334.2 12.3 329 10.8
2009-04-29 07:33:43 51°17.082 2°49.26 334.2 12.2 328 10.9
2009-04-29 07:33:48 51°17.097 2°49.246 334.2 12.2 329 10.8
2009-04-29 07:33:53 51°17.112 2°49.232 334.4 12.2 329 10.5
2009-04-29 07:33:59 51°17.129 2°49.215 334.4 12.2 329 10.2
2009-04-29 07:34:03 51°17.14 2°49.203 334.4 12.2 328 10.4
2009-04-29 07:34:08 51°17.155 2°49.189 334 12.2 329 10.5
2009-04-29 07:34:13 51°17.169 2°49.175 334.1 12.2 329 10.7
2009-04-29 07:34:19 51°17.187 2°49.159 335 12.2 330 10.8
2009-04-29 07:34:24 51°17.202 2°49.145 335.3 12.2 329 10.9
2009-04-29 07:34:28 51°17.213 2°49.134 334.9 12.2 330 11.1
2009-04-29 07:34:33 51°17.228 2°49.12 334.9 12.2 329 11
2009-04-29 07:34:39 51°17.245 2°49.104 334.7 12.2 329 11.1
2009-04-29 07:34:43 51°17.257 2°49.093 334.6 12.2 329 11
2009-04-29 07:34:49 51°17.274 2°49.076 334.4 12.2 329 11.1
2009-04-29 07:34:53 51°17.286 2°49.065 334.7 12.2 329 11.1
2009-04-29 07:34:58 51°17.3 2°49.051 334.5 12.2 329 11
2009-04-29 07:35:04 51°17.318 2°49.035 334.6 12.2 329 11
2009-04-29 07:35:08 51°17.329 2°49.023 334.7 12.2 329 11.1
2009-04-29 07:35:13 51°17.344 2°49.01 334.7 12.2 329 11.2
2009-04-29 07:35:18 51°17.359 2°48.996 334.9 12.2 330 11.1
2009-04-29 07:35:24 51°17.376 2°48.98 335.1 12.2 330 11.1
2009-04-29 07:35:29 51°17.391 2°48.966 335.2 12.3 329 11.3
2009-04-29 07:35:33 51°17.403 2°48.955 335 12.2 329 11.2
2009-04-29 07:35:39 51°17.421 2°48.939 335 12.2 329 11.2
2009-04-29 07:35:43 51°17.432 2°48.928 335 12.3 329 11.2
2009-04-29 07:35:49 51°17.45 2°48.911 335 12.3 330 11.1
2009-04-29 07:35:53 51°17.462 2°48.901 335 12.2 330 11.2
2009-04-29 07:35:58 51°17.476 2°48.887 335.2 12.2 329 11.2
2009-04-29 07:36:03 51°17.491 2°48.873 334.9 12.2 329 11.2
2009-04-29 07:36:08 51°17.506 2°48.86 334.9 12.3 330 11.2
2009-04-29 07:36:13 51°17.52 2°48.846 335 12.3 329 11.3
2009-04-29 07:36:19 51°17.538 2°48.829 335 12.2 330 11.2
2009-04-29 07:36:24 51°17.553 2°48.816 335.9 12.2 331 11.2
2009-04-29 07:36:28 51°17.565 2°48.805 336.1 12.3 330 11.1
2009-04-29 07:36:33 51°17.579 2°48.792 336.7 12.2 332 11
2009-04-29 07:36:39 51°17.597 2°48.777 337.4 12.2 331 10.6
2009-04-29 07:36:43 51°17.609 2°48.766 337.2 12.3 331 10.5
2009-04-29 07:36:49 51°17.626 2°48.749 336.7 12.2 330 10.3
2009-04-29 07:36:53 51°17.638 2°48.739 335.9 12.2 329 10
2009-04-29 07:36:59 51°17.656 2°48.722 335.4 12.2 329 9.8
2009-04-29 07:37:04 51°17.67 2°48.709 334.9 12.2 329 9.5
2009-04-29 07:37:08 51°17.682 2°48.698 334.9 12.2 329 9.5
2009-04-29 07:37:13 51°17.696 2°48.683 334.7 12.2 328 9.6
2009-04-29 07:37:19 51°17.713 2°48.666 334.6 12.2 328 9.7
2009-04-29 07:37:24 51°17.728 2°48.652 334.4 12.3 328 9.5
2009-04-29 07:37:29 51°17.742 2°48.637 334.4 12.3 328 9.2
2009-04-29 07:37:33 51°17.754 2°48.626 334.6 12.3 328 9.3
2009-04-29 07:37:38 51°17.768 2°48.612 334.6 12.3 328 9.3
2009-04-29 07:37:43 51°17.783 2°48.597 334.4 12.3 328 9.3
2009-04-29 07:37:49 51°17.8 2°48.58 334.3 12.3 328 9.4
2009-04-29 07:37:53 51°17.811 2°48.568 334.3 12.3 328 9.3
2009-04-29 07:37:58 51°17.826 2°48.553 334.4 12.4 328 9.2
2009-04-29 07:38:03 51°17.84 2°48.539 334.5 12.4 328 9.2
2009-04-29 07:38:09 51°17.858 2°48.521 334.7 12.3 328 9.3
2009-04-29 07:38:13 51°17.87 2°48.51 334.7 12.4 328 9.3
2009-04-29 07:38:18 51°17.884 2°48.496 334.4 12.4 328 9.3
2009-04-29 07:38:24 51°17.902 2°48.479 334.4 12.4 328 9.4
2009-04-29 07:38:29 51°17.916 2°48.464 334.4 12.4 329 9.5
2009-04-29 07:38:33 51°17.928 2°48.453 335 12.4 329 9.5
2009-04-29 07:38:39 51°17.946 2°48.436 335.2 12.4 329 9.4
2009-04-29 07:38:43 51°17.958 2°48.424 334.9 12.4 329 9.5
2009-04-29 07:38:48 51°17.972 2°48.41 334.9 12.4 329 9.5
2009-04-29 07:38:53 51°17.987 2°48.395 335 12.4 329 9.4
2009-04-29 07:38:58 51°18.002 2°48.381 335.3 12.4 329 9.4
2009-04-29 07:39:04 51°18.019 2°48.364 335.4 12.4 329 9.3
2009-04-29 07:39:08 51°18.032 2°48.354 335.4 12.4 329 9.2
2009-04-29 07:39:13 51°18.047 2°48.34 335.4 12.4 329 9.2
2009-04-29 07:39:19 51°18.064 2°48.322 335.3 12.4 328 9.6
2009-04-29 07:39:23 51°18.076 2°48.31 335.1 12.5 328 9.6
2009-04-29 07:39:29 51°18.093 2°48.292 334.9 12.5 329 9.7
2009-04-29 07:39:33 51°18.105 2°48.281 334.9 12.5 329 9.6
2009-04-29 07:39:38 51°18.119 2°48.266 335.2 12.5 328 9.6
2009-04-29 07:39:43 51°18.134 2°48.251 334.8 12.5 328 9.6
2009-04-29 07:39:49 51°18.152 2°48.234 334.7 12.5 329 9.5
2009-04-29 07:39:53 51°18.163 2°48.222 334.8 12.5 328 9.4
2009-04-29 07:39:58 51°18.178 2°48.208 335 12.5 329 9.5
2009-04-29 07:40:03 51°18.194 2°48.195 335 12.5 328 9.7
2009-04-29 07:40:09 51°18.212 2°48.179 334.9 12.5 329 9.8
2009-04-29 07:40:13 51°18.224 2°48.167 335.1 12.6 329 10.1
2009-04-29 07:40:18 51°18.239 2°48.153 335.4 12.6 329 10.2
2009-04-29 07:40:23 51°18.254 2°48.138 335.4 12.6 328 10.4
2009-04-29 07:40:29 51°18.271 2°48.121 335.2 12.6 329 10.6
2009-04-29 07:40:33 51°18.283 2°48.109 335.1 12.6 329 10.8
2009-04-29 07:40:38 51°18.298 2°48.095 335.4 12.6 329 11
2009-04-29 07:40:43 51°18.313 2°48.08 335.5 12.6 329 11.2
2009-04-29 07:40:49 51°18.331 2°48.063 335.6 12.5 329 11.4
2009-04-29 07:40:53 51°18.342 2°48.051 335.1 12.5 329 11.7
2009-04-29 07:40:59 51°18.36 2°48.033 334.9 12.5 328 11.8
2009-04-29 07:41:03 51°18.372 2°48.022 334.7 12.5 328 12
2009-04-29 07:41:08 51°18.387 2°48.007 334.8 12.5 328 12.2
2009-04-29 07:41:13 51°18.401 2°47.992 334.7 12.4 328 12.4
2009-04-29 07:41:18 51°18.416 2°47.978 334.7 12.4 328 12.5
2009-04-29 07:41:24 51°18.433 2°47.96 334.7 12.4 328 12.7
2009-04-29 07:41:28 51°18.445 2°47.949 335 12.4 328 12.8
2009-04-29 07:41:33 51°18.459 2°47.934 335 12.4 328 13
2009-04-29 07:41:38 51°18.474 2°47.92 335.6 12.4 330 13
2009-04-29 07:41:43 51°18.49 2°47.908 336.5 12.4 329 13.2
2009-04-29 07:41:49 51°18.508 2°47.893 337.5 12.3 332 13.3
2009-04-29 07:41:53 51°18.52 2°47.883 338.6 12.3 332 13.4
2009-04-29 07:41:59 51°18.538 2°47.867 338.8 12.3 332 13.5
2009-04-29 07:42:04 51°18.553 2°47.854 339.8 12.3 333 13.7
2009-04-29 07:42:09 51°18.568 2°47.841 339.9 12.3 333 13.8
2009-04-29 07:42:13 51°18.58 2°47.832 340.3 12.2 334 13.9
2009-04-29 07:42:18 51°18.595 2°47.82 340.6 12.3 334 14
2009-04-29 07:42:24 51°18.614 2°47.807 340.8 12.2 334 14.2
2009-04-29 07:42:29 51°18.629 2°47.795 341.1 12.2 334 14.4
2009-04-29 07:42:33 51°18.642 2°47.785 340.7 12.2 333 14.6
2009-04-29 07:42:38 51°18.656 2°47.772 339.6 12.2 332 14.7
2009-04-29 07:42:43 51°18.672 2°47.76 339.2 12.2 332 15
2009-04-29 07:42:49 51°18.689 2°47.744 338.3 12.2 331 15.2
2009-04-29 07:42:53 51°18.701 2°47.733 338.1 12.2 331 15.3
2009-04-29 07:42:59 51°18.719 2°47.717 337.7 12.2 330 15.5
2009-04-29 07:43:03 51°18.731 2°47.707 337.6 12.2 331 15.6
2009-04-29 07:43:08 51°18.746 2°47.694 337.6 12.3 331 15.7
2009-04-29 07:43:13 51°18.761 2°47.681 337.4 12.3 331 15.8
2009-04-29 07:43:18 51°18.775 2°47.667 337.9 12.2 332 15.9
2009-04-29 07:43:24 51°18.793 2°47.652 338.7 12.3 332 16
2009-04-29 07:43:28 51°18.805 2°47.641 338.9 12.3 332 16.1
2009-04-29 07:43:33 51°18.82 2°47.629 339.6 12.3 334 16.3
2009-04-29 07:43:39 51°18.838 2°47.614 340 12.3 333 16.7
2009-04-29 07:43:43 51°18.851 2°47.605 340.1 12.3 334 17.4
2009-04-29 07:43:49 51°18.869 2°47.59 340.3 12.3 333 17.8
2009-04-29 07:43:53 51°18.881 2°47.58 340.3 12.3 334 18
2009-04-29 07:43:59 51°18.9 2°47.565 339.9 12.4 333 18
2009-04-29 07:44:04 51°18.915 2°47.552 339.2 12.4 332 18
2009-04-29 07:44:08 51°18.927 2°47.542 338.6 12.4 332 18
2009-04-29 07:44:13 51°18.942 2°47.528 338.3 12.4 331 17.9
2009-04-29 07:44:18 51°18.957 2°47.515 338.3 12.4 332 18
2009-04-29 07:44:24 51°18.975 2°47.5 339 12.4 332 18.1
2009-04-29 07:44:29 51°18.991 2°47.488 339.5 12.3 333 18.4
2009-04-29 07:44:33 51°19.003 2°47.478 339 12.3 331 18.6
2009-04-29 07:44:38 51°19.018 2°47.465 338.3 12.3 332 18.8
2009-04-29 07:44:44 51°19.036 2°47.449 338.3 12.3 331 19
2009-04-29 07:44:49 51°19.05 2°47.436 337.6 12.3 331 19.1
2009-04-29 07:44:53 51°19.062 2°47.425 337.6 12.2 332 19.2
2009-04-29 07:44:58 51°19.077 2°47.412 338.6 12.2 332 19.4
2009-04-29 07:45:03 51°19.092 2°47.399 338.7 12.2 331 19.4
2009-04-29 07:45:09 51°19.109 2°47.383 338.1 12.2 331 19.4
2009-04-29 07:45:13 51°19.121 2°47.373 337.8 12.2 331 19.6
2009-04-29 07:45:18 51°19.136 2°47.359 337.3 12.2 330 19.6
2009-04-29 07:45:24 51°19.154 2°47.344 337.1 12.2 332 19.8
2009-04-29 07:45:28 51°19.166 2°47.334 338.3 12.2 332 19.9
2009-04-29 07:45:33 51°19.181 2°47.321 338.8 12.2 332 20
2009-04-29 07:45:39 51°19.199 2°47.306 339.3 12.2 333 20.1
2009-04-29 07:45:43 51°19.211 2°47.296 339.6 12.3 333 20.2
2009-04-29 07:45:48 51°19.226 2°47.284 339.9 12.3 333 20.3
2009-04-29 07:45:53 51°19.242 2°47.273 340.1 12.3 333 20.3
2009-04-29 07:45:59 51°19.26 2°47.258 340.1 12.3 333 20.4
2009-04-29 07:46:04 51°19.276 2°47.246 340.2 12.3 333 20.5
2009-04-29 07:46:08 51°19.288 2°47.236 340.1 12.3 333 20.4
2009-04-29 07:46:13 51°19.303 2°47.223 339.8 12.3 333 20.5
2009-04-29 07:46:18 51°19.318 2°47.211 339.8 12.3 333 20.5
2009-04-29 07:46:23 51°19.333 2°47.198 339.8 12.3 332 20.5
2009-04-29 07:46:29 51°19.351 2°47.182 338.8 12.3 331 20.6
2009-04-29 07:46:33 51°19.363 2°47.172 338.6 12.3 333 20.6
2009-04-29 07:46:38 51°19.378 2°47.16 339 12.3 332 20.6
2009-04-29 07:46:44 51°19.396 2°47.145 339.2 12.3 333 20.6
2009-04-29 07:46:49 51°19.411 2°47.132 339 12.3 332 20.6
2009-04-29 07:46:53 51°19.423 2°47.121 338.4 12.3 332 20.6
2009-04-29 07:46:58 51°19.438 2°47.109 338.7 12.3 332 20.6
2009-04-29 07:47:03 51°19.453 2°47.096 338.3 12.3 331 20.6
2009-04-29 07:47:09 51°19.471 2°47.08 337.7 12.3 331 20.6
2009-04-29 07:47:13 51°19.483 2°47.07 337.5 12.3 331 20.7
2009-04-29 07:47:18 51°19.498 2°47.056 337 12.3 331 20.7
2009-04-29 07:47:24 51°19.516 2°47.04 336.9 12.3 331 20.8
2009-04-29 07:47:28 51°19.528 2°47.029 336.9 12.3 331 20.8
2009-04-29 07:47:33 51°19.543 2°47.016 337.3 12.3 332 20.7
2009-04-29 07:47:39 51°19.561 2°47.001 337.6 12.3 332 20.7
2009-04-29 07:47:43 51°19.573 2°46.99 337.7 12.3 331 20.7
2009-04-29 07:47:48 51°19.588 2°46.977 337.4 12.3 331 20.6
2009-04-29 07:47:53 51°19.603 2°46.964 336.8 12.3 331 20.4
2009-04-29 07:47:58 51°19.618 2°46.951 336.8 12.3 332 20.5
2009-04-29 07:48:04 51°19.636 2°46.936 337.6 12.3 332 20.4
2009-04-29 07:48:08 51°19.648 2°46.926 338.3 12.3 333 20.3
2009-04-29 07:48:13 51°19.663 2°46.914 339 12.3 333 20
2009-04-29 07:48:19 51°19.681 2°46.899 339.2 12.3 333 20.2
2009-04-29 07:48:23 51°19.694 2°46.889 339.6 12.3 334 19.9
2009-04-29 07:48:29 51°19.712 2°46.875 339.7 12.3 334 19.8
2009-04-29 07:48:33 51°19.724 2°46.865 339.7 12.3 333 19.8
2009-04-29 07:48:38 51°19.739 2°46.853 339.6 12.2 333 19.6
2009-04-29 07:48:44 51°19.757 2°46.838 339.2 12.1 333 19.4
2009-04-29 07:48:48 51°19.769 2°46.829 339.3 12.1 334 19.5
2009-04-29 07:48:53 51°19.784 2°46.817 339.6 12 334 19.3
2009-04-29 07:48:58 51°19.799 2°46.805 339.6 12 333 19.1
2009-04-29 07:49:04 51°19.817 2°46.789 338.4 12 332 18.8
2009-04-29 07:49:09 51°19.831 2°46.777 338.3 12 332 18.6
2009-04-29 07:49:13 51°19.843 2°46.767 337.6 12 331 17.9
2009-04-29 07:49:18 51°19.858 2°46.755 337.7 12 333 17.7
2009-04-29 07:49:23 51°19.872 2°46.742 338.4 12 332 17.4
2009-04-29 07:49:29 51°19.89 2°46.728 338.5 12 333 17.3
2009-04-29 07:49:33 51°19.902 2°46.718 338.9 12 332 16.9
2009-04-29 07:49:39 51°19.92 2°46.704 339 12 334 16.9
2009-04-29 07:49:43 51°19.932 2°46.694 339.2 12 332 16.9
2009-04-29 07:49:49 51°19.949 2°46.68 338.9 12 333 16.9
2009-04-29 07:49:53 51°19.961 2°46.67 339 12 333 17.1
2009-04-29 07:49:58 51°19.976 2°46.658 339.1 12.1 333 16.9
2009-04-29 07:50:04 51°19.994 2°46.643 339 12 333 16.6
2009-04-29 07:50:08 51°20.006 2°46.633 338.9 12 333 15.6
2009-04-29 07:50:13 51°20.021 2°46.621 338.9 12.1 332 14.2
2009-04-29 07:50:19 51°20.039 2°46.605 338.7 12.1 332 14
2009-04-29 07:50:23 51°20.05 2°46.596 338.7 12.2 332 14.1
2009-04-29 07:50:29 51°20.068 2°46.58 338.4 12.2 332 14.8
2009-04-29 07:50:33 51°20.08 2°46.57 338.3 12.2 332 15.2
2009-04-29 07:50:39 51°20.098 2°46.555 338.6 12.2 332 15.4
2009-04-29 07:50:44 51°20.113 2°46.542 338 12.2 331 15.8
2009-04-29 07:50:48 51°20.125 2°46.532 337.6 12.2 332 15.7
2009-04-29 07:50:53 51°20.14 2°46.519 337.3 12.3 331 15.5
2009-04-29 07:50:58 51°20.155 2°46.505 336.9 12.2 331 14.9
2009-04-29 07:51:04 51°20.172 2°46.489 336.9 12.3 330 13.7
2009-04-29 07:51:09 51°20.187 2°46.476 336.7 12.3 330 12.5
2009-04-29 07:51:13 51°20.199 2°46.465 336.4 12.3 330 12.3
2009-04-29 07:51:18 51°20.214 2°46.451 336.9 12.3 330 12.2
2009-04-29 07:51:23 51°20.229 2°46.438 337.2 12.3 330 11.4
2009-04-29 07:51:29 51°20.246 2°46.422 337.3 12.3 330 12.8
2009-04-29 07:51:33 51°20.258 2°46.411 337.4 12.4 331 13.8
2009-04-29 07:51:38 51°20.273 2°46.397 337.5 12.5 331 14.7
2009-04-29 07:51:43 51°20.288 2°46.383 337.2 12.5 330 15.3
2009-04-29 07:51:49 51°20.307 2°46.367 337 12.5 331 16
2009-04-29 07:51:53 51°20.319 2°46.356 336.9 12.5 331 16.7
2009-04-29 07:51:58 51°20.334 2°46.343 337.1 12.5 331 16.9
2009-04-29 07:52:04 51°20.352 2°46.327 337 12.5 331 17.2
2009-04-29 07:52:08 51°20.364 2°46.316 337 12.5 331 17.5
2009-04-29 07:52:13 51°20.379 2°46.303 337.2 12.5 331 17.8
2009-04-29 07:52:19 51°20.397 2°46.287 337.2 12.5 332 18.2
2009-04-29 07:52:23 51°20.409 2°46.277 337.4 12.4 331 18.4
2009-04-29 07:52:28 51°20.425 2°46.263 336.9 12.5 330 18.8
2009-04-29 07:52:33 51°20.44 2°46.249 336.1 12.5 331 19.1
2009-04-29 07:52:39 51°20.458 2°46.233 336.2 12.5 331 19.2
2009-04-29 07:52:44 51°20.473 2°46.22 336.6 12.5 331 19.4
2009-04-29 07:52:48 51°20.485 2°46.209 336.8 12.5 332 19.7
2009-04-29 07:52:53 51°20.5 2°46.196 336.9 12.5 331 19.7
2009-04-29 07:52:59 51°20.518 2°46.18 336.9 12.5 331 20.3
2009-04-29 07:53:03 51°20.53 2°46.169 336.5 12.5 330 20.1
2009-04-29 07:53:09 51°20.549 2°46.152 335.8 12.5 330 20.4
2009-04-29 07:53:13 51°20.561 2°46.142 335.6 12.5 330 20.5
2009-04-29 07:53:18 51°20.576 2°46.128 336.1 12.4 331 20.6
2009-04-29 07:53:24 51°20.594 2°46.112 336.2 12.5 331 20.4
2009-04-29 07:53:29 51°20.609 2°46.098 336.6 12.4 331 19.9
2009-04-29 07:53:33 51°20.621 2°46.088 336.9 12.4 330 19.9
2009-04-29 07:53:39 51°20.639 2°46.07 334.9 12.4 327 20.2
2009-04-29 07:53:44 51°20.653 2°46.055 333.3 12.4 328 21.5
2009-04-29 07:53:49 51°20.667 2°46.04 332.4 12.5 326 21.9
2009-04-29 07:53:53 51°20.679 2°46.028 331.5 12.5 326 21.6
2009-04-29 07:53:59 51°20.696 2°46.008 330.5 12.5 325 22.3
2009-04-29 07:54:03 51°20.707 2°45.995 329.9 12.5 324 22.6
2009-04-29 07:54:09 51°20.724 2°45.975 328.5 12.5 322 22.5
2009-04-29 07:54:13 51°20.734 2°45.961 326.9 12.5 322 23.1
2009-04-29 07:54:18 51°20.748 2°45.944 325.9 12.5 320 23.4
2009-04-29 07:54:24 51°20.763 2°45.922 324.5 12.5 319 23.8
2009-04-29 07:54:29 51°20.776 2°45.903 323.8 12.6 318 24.1
2009-04-29 07:54:33 51°20.787 2°45.888 322.6 12.6 316 24.3
2009-04-29 07:54:39 51°20.802 2°45.865 321.5 12.6 317 24.6
2009-04-29 07:54:43 51°20.812 2°45.849 320.9 12.6 315 24.6
2009-04-29 07:54:48 51°20.824 2°45.829 319.9 12.6 315 24.5
2009-04-29 07:54:53 51°20.837 2°45.81 319.6 12.6 315 23.7
2009-04-29 07:54:59 51°20.851 2°45.786 318.9 12.6 314 22.3
2009-04-29 07:55:04 51°20.863 2°45.766 319 12.6 316 22.5
2009-04-29 07:55:08 51°20.874 2°45.751 319.9 12.6 316 22.9
2009-04-29 07:55:13 51°20.886 2°45.732 320.3 12.6 316 23.3
2009-04-29 07:55:19 51°20.901 2°45.709 320.9 12.6 317 23.6
2009-04-29 07:55:23 51°20.912 2°45.693 321 12.6 317 24.2
2009-04-29 07:55:29 51°20.927 2°45.67 321.3 12.6 317 24.4
2009-04-29 07:55:33 51°20.937 2°45.655 321.6 12.6 317 24.7
2009-04-29 07:55:38 51°20.949 2°45.635 320.9 12.6 315 25.1
2009-04-29 07:55:44 51°20.965 2°45.612 320.4 12.6 316 25.1
2009-04-29 07:55:49 51°20.977 2°45.593 320.3 12.6 315 25.2
2009-04-29 07:55:53 51°20.987 2°45.577 319.8 12.6 315 25.3
2009-04-29 07:55:58 51°20.999 2°45.557 319.5 12.6 315 25.4
2009-04-29 07:56:04 51°21.014 2°45.533 319.4 12.6 315 25.4
2009-04-29 07:56:09 51°21.026 2°45.514 319.4 12.6 315 25.3
2009-04-29 07:56:13 51°21.036 2°45.498 319.4 12.6 315 25.4
2009-04-29 07:56:18 51°21.048 2°45.478 319.3 12.6 315 25.1
2009-04-29 07:56:24 51°21.063 2°45.455 319.9 12.6 315 25.2
2009-04-29 07:56:29 51°21.076 2°45.435 320.6 12.6 316 25.1
2009-04-29 07:56:33 51°21.086 2°45.42 321.4 12.5 316 25.1
2009-04-29 07:56:39 51°21.101 2°45.397 321.8 12.5 317 25.4
2009-04-29 07:56:43 51°21.111 2°45.382 322.2 12.5 317 25.4
2009-04-29 07:56:48 51°21.124 2°45.363 322.3 12.5 317 25.4
2009-04-29 07:56:53 51°21.137 2°45.344 322.8 12.5 317 25.3
2009-04-29 07:56:58 51°21.149 2°45.325 322.8 12.5 317 25.2
2009-04-29 07:57:04 51°21.165 2°45.303 323.5 12.4 319 25.2
2009-04-29 07:57:08 51°21.175 2°45.289 324.1 12.4 318 25.3
2009-04-29 07:57:13 51°21.188 2°45.271 324.5 12.2 320 25
2009-04-29 07:57:19 51°21.203 2°45.249 325.2 12.3 318 25.2
2009-04-29 07:57:23 51°21.213 2°45.235 325.3 12.2 320 25
2009-04-29 07:57:29 51°21.229 2°45.215 326.2 12.2 320 25.1
2009-04-29 07:57:33 51°21.24 2°45.201 326.6 12.1 321 25
2009-04-29 07:57:39 51°21.255 2°45.181 327.8 12.1 323 25
2009-04-29 07:57:44 51°21.27 2°45.167 330.3 12 326 24.9
2009-04-29 07:57:48 51°21.28 2°45.154 332 12 325 24.6
2009-04-29 07:57:53 51°21.295 2°45.141 334 11.9 330 24.6
2009-04-29 07:57:58 51°21.309 2°45.127 335.3 12 328 24.7
2009-04-29 07:58:04 51°21.326 2°45.112 336.4 12 332 24.5
2009-04-29 07:58:09 51°21.341 2°45.099 337.6 12 331 24.4
2009-04-29 07:58:13 51°21.352 2°45.089 337.9 11.9 333 24.3
2009-04-29 07:58:18 51°21.367 2°45.077 338.9 11.9 332 23.9
2009-04-29 07:58:23 51°21.382 2°45.065 339 11.9 333 23.8
2009-04-29 07:58:29 51°21.399 2°45.051 339.9 11.9 333 24
2009-04-29 07:58:33 51°21.411 2°45.041 339.9 11.9 333 23.7
2009-04-29 07:58:39 51°21.429 2°45.027 340.2 11.9 334 23.4
2009-04-29 07:58:43 51°21.441 2°45.018 340.5 11.9 334 23.5
2009-04-29 07:58:49 51°21.459 2°45.004 340.4 11.9 333 23.1
2009-04-29 07:58:53 51°21.47 2°44.994 339.9 11.9 334 23.1
2009-04-29 07:58:58 51°21.485 2°44.983 340.4 11.9 335 22.9
2009-04-29 07:59:04 51°21.503 2°44.969 340.9 12 334 22.8
2009-04-29 07:59:08 51°21.515 2°44.959 340.5 12 334 22.6
2009-04-29 07:59:13 51°21.53 2°44.948 340.5 12 335 22.5
2009-04-29 07:59:19 51°21.548 2°44.935 341.4 12 335 22.2
2009-04-29 07:59:23 51°21.56 2°44.925 341.5 12 335 22.1
2009-04-29 07:59:29 51°21.579 2°44.912 341.9 12 335 22.1
2009-04-29 07:59:33 51°21.591 2°44.903 341.4 12 334 21.9
2009-04-29 07:59:39 51°21.609 2°44.889 340.5 12 334 21.8
2009-04-29 07:59:44 51°21.624 2°44.876 340.4 12 333 21.8
2009-04-29 07:59:48 51°21.636 2°44.866 339.4 12.1 332 21.6
2009-04-29 07:59:53 51°21.651 2°44.854 338.9 12.1 333 21.7
2009-04-29 07:59:59 51°21.669 2°44.839 339 12.1 332 21.8
2009-04-29 08:00:04 51°21.684 2°44.827 339.1 12.1 334 21.8
2009-04-29 08:00:09 51°21.699 2°44.815 339.9 12.1 334 21.8
2009-04-29 08:00:13 51°21.711 2°44.805 340.3 12.1 334 21.7
2009-04-29 08:00:18 51°21.726 2°44.794 340.8 12.1 335 21.6
2009-04-29 08:00:24 51°21.744 2°44.78 340.5 12.2 333 20.5
2009-04-29 08:00:29 51°21.759 2°44.768 339.9 12.2 334 20.8
2009-04-29 08:00:33 51°21.771 2°44.758 340 12.2 334 21.3
2009-04-29 08:00:38 51°21.786 2°44.747 340.3 12.2 334 21.5
2009-04-29 08:00:43 51°21.802 2°44.735 340.4 12.3 334 21.5
2009-04-29 08:00:49 51°21.821 2°44.72 340.4 12.2 334 21.8
2009-04-29 08:00:53 51°21.833 2°44.711 340.5 12.2 335 21.9
2009-04-29 08:00:58 51°21.848 2°44.699 340.8 12.2 335 22.1
2009-04-29 08:01:04 51°21.866 2°44.685 340.6 12.2 333 22.2
2009-04-29 08:01:09 51°21.881 2°44.673 339.4 12.3 333 22.2
2009-04-29 08:01:13 51°21.894 2°44.663 339.1 12.3 333 21.8
2009-04-29 08:01:19 51°21.912 2°44.648 338.6 12.3 333 21
2009-04-29 08:01:23 51°21.924 2°44.638 338.9 12.2 333 20.7
2009-04-29 08:01:28 51°21.939 2°44.626 339.4 12.2 333 21.8
2009-04-29 08:01:33 51°21.954 2°44.614 339.7 12.2 334 22.3
2009-04-29 08:01:39 51°21.972 2°44.6 340.1 12.2 334 22.4
2009-04-29 08:01:44 51°21.987 2°44.588 340 12.2 333 22.4
2009-04-29 08:01:48 51°21.999 2°44.578 338.8 12.2 333 22.4
2009-04-29 08:01:53 51°22.014 2°44.566 338.6 12.2 334 22.6
2009-04-29 08:01:59 51°22.033 2°44.551 339.2 12.3 333 22.8
2009-04-29 08:02:03 51°22.045 2°44.542 339 12.3 334 22.7
2009-04-29 08:02:09 51°22.063 2°44.527 339 12.3 333 23.2
2009-04-29 08:02:13 51°22.075 2°44.518 339 12.3 334 23.1
2009-04-29 08:02:19 51°22.093 2°44.503 339 12.3 334 23.3
2009-04-29 08:02:24 51°22.109 2°44.491 339 12.3 334 23.2
2009-04-29 08:02:29 51°22.124 2°44.479 339 12.3 334 23
2009-04-29 08:02:33 51°22.136 2°44.47 339.2 12.3 334 22.6
2009-04-29 08:02:38 51°22.152 2°44.458 339.4 12.3 334 22.7
2009-04-29 08:02:44 51°22.17 2°44.444 339.4 12.3 334 22.5
2009-04-29 08:02:49 51°22.185 2°44.432 339.2 12.3 334 22
2009-04-29 08:02:53 51°22.198 2°44.422 339 12.3 334 22.4
2009-04-29 08:02:58 51°22.213 2°44.41 338.9 12.3 334 23.1
2009-04-29 08:03:04 51°22.231 2°44.395 339.2 12.3 334 23.3
2009-04-29 08:03:09 51°22.246 2°44.383 339.2 12.3 334 24
2009-04-29 08:03:13 51°22.259 2°44.374 338.9 12.3 334 24.3
2009-04-29 08:03:19 51°22.277 2°44.359 338.8 12.3 333 23.8
2009-04-29 08:03:23 51°22.289 2°44.349 337.9 12.3 333 22.4
2009-04-29 08:03:29 51°22.307 2°44.334 338 12.2 333 23.5
2009-04-29 08:03:33 51°22.319 2°44.324 338 12.2 332 24.1
2009-04-29 08:03:38 51°22.334 2°44.312 338.4 12.2 334 24.5
2009-04-29 08:03:44 51°22.353 2°44.298 338.9 12.2 333 24.8
2009-04-29 08:03:48 51°22.365 2°44.289 339.2 12.2 335 24.9
2009-04-29 08:03:53 51°22.38 2°44.277 339.7 12.2 334 25
2009-04-29 08:03:59 51°22.398 2°44.263 339.1 12.2 334 24.8
2009-04-29 08:04:03 51°22.411 2°44.253 338.3 12.2 333 24.1
2009-04-29 08:04:09 51°22.429 2°44.238 337.7 12.2 333 23.9
2009-04-29 08:04:13 51°22.441 2°44.228 337 12.2 332 23.5
2009-04-29 08:04:19 51°22.459 2°44.213 336.7 12.2 332 23.2
2009-04-29 08:04:24 51°22.474 2°44.2 336.7 12.2 332 23.5
2009-04-29 08:04:28 51°22.486 2°44.19 337.4 12.2 334 24.1
2009-04-29 08:04:33 51°22.501 2°44.178 338.3 12.2 333 24.8
2009-04-29 08:04:38 51°22.516 2°44.166 338.4 12.2 334 24.5
2009-04-29 08:04:44 51°22.535 2°44.152 338.9 12.2 335 24.9
2009-04-29 08:04:49 51°22.55 2°44.141 339 12.2 334 24.7
2009-04-29 08:04:53 51°22.562 2°44.131 338.5 12.2 334 25.2
2009-04-29 08:04:58 51°22.577 2°44.119 338.3 12.2 334 25
2009-04-29 08:05:04 51°22.595 2°44.105 338.5 12.2 334 25.4
2009-04-29 08:05:09 51°22.611 2°44.092 338.5 12.2 333 25.1
2009-04-29 08:05:13 51°22.623 2°44.082 338.5 12.2 333 25
2009-04-29 08:05:19 51°22.64 2°44.067 338.5 12.1 333 24.7
2009-04-29 08:05:24 51°22.655 2°44.055 338.3 12.1 333 24.3
2009-04-29 08:05:29 51°22.67 2°44.043 338.3 12.1 333 23.1
2009-04-29 08:05:33 51°22.682 2°44.034 338.9 12.1 334 23.4
2009-04-29 08:05:39 51°22.701 2°44.02 339.2 12.1 334 23.6
2009-04-29 08:05:43 51°22.713 2°44.01 339.4 12.1 334 23.8
2009-04-29 08:05:49 51°22.731 2°43.997 339.4 12.1 334 24
2009-04-29 08:05:53 51°22.743 2°43.987 339.4 12.1 333 24.1
2009-04-29 08:05:59 51°22.76 2°43.972 338.9 12.1 333 23.8
2009-04-29 08:06:04 51°22.775 2°43.96 338.7 12.1 333 23.5
2009-04-29 08:06:08 51°22.787 2°43.95 338.6 12.1 333 23.4
2009-04-29 08:06:13 51°22.802 2°43.938 338.9 12.1 332 24
2009-04-29 08:06:19 51°22.82 2°43.922 338 12.1 330 23.9
2009-04-29 08:06:23 51°22.831 2°43.911 337.1 12.1 331 24.3
2009-04-29 08:06:29 51°22.849 2°43.895 337.6 12.1 331 24.6
2009-04-29 08:06:33 51°22.861 2°43.885 338.1 12.1 331 24.8
2009-04-29 08:06:39 51°22.878 2°43.869 337.9 12.1 330 25.5
2009-04-29 08:06:44 51°22.893 2°43.856 337.3 12.1 330 25.4
2009-04-29 08:06:48 51°22.904 2°43.845 336.9 12.1 330 25.7
2009-04-29 08:06:53 51°22.919 2°43.831 336.5 12.1 330 25.6
2009-04-29 08:06:59 51°22.936 2°43.815 336.6 12.1 330 25.8
2009-04-29 08:07:04 51°22.951 2°43.802 336.8 12.1 330 25.7
2009-04-29 08:07:09 51°22.965 2°43.788 336.9 12.2 330 25.5
2009-04-29 08:07:13 51°22.977 2°43.777 336.9 12.2 330 26
2009-04-29 08:07:18 51°22.992 2°43.764 336.9 12.2 331 25.7
2009-04-29 08:07:24 51°23.01 2°43.748 337.4 12.2 331 26.1
2009-04-29 08:07:29 51°23.024 2°43.734 337.5 12.2 331 26
2009-04-29 08:07:33 51°23.036 2°43.724 337.2 12.2 331 25.7
2009-04-29 08:07:39 51°23.054 2°43.707 337.1 12.2 331 25.8
2009-04-29 08:07:44 51°23.069 2°43.695 337.9 12.2 332 26.1
2009-04-29 08:07:49 51°23.084 2°43.683 338.3 12.2 331 26
2009-04-29 08:07:53 51°23.096 2°43.673 338.4 12.2 332 25.9
2009-04-29 08:07:59 51°23.113 2°43.658 338.7 12.2 332 25.8
2009-04-29 08:08:03 51°23.125 2°43.647 338.5 12.2 332 25.6
2009-04-29 08:08:09 51°23.143 2°43.632 338.8 12.2 333 25.5
2009-04-29 08:08:13 51°23.155 2°43.622 339 12.2 332 25.6
2009-04-29 08:08:19 51°23.173 2°43.607 339.2 12.2 333 25.4
2009-04-29 08:08:24 51°23.189 2°43.594 339.3 12.2 332 25.6
2009-04-29 08:08:28 51°23.201 2°43.584 339.4 12.2 333 25.5
2009-04-29 08:08:33 51°23.216 2°43.572 339.7 12.2 333 25.6
2009-04-29 08:08:39 51°23.234 2°43.557 339.7 12.1 333 25.2
2009-04-29 08:08:43 51°23.246 2°43.547 339.4 12.2 332 25.3
2009-04-29 08:08:49 51°23.264 2°43.533 339.6 12.1 333 25.1
2009-04-29 08:08:53 51°23.276 2°43.524 340.5 12.1 334 24.8
2009-04-29 08:08:59 51°23.293 2°43.51 340.7 12.1 333 25.2
2009-04-29 08:09:04 51°23.309 2°43.498 340.3 12.1 333 25.2
2009-04-29 08:09:09 51°23.323 2°43.485 340 12.1 333 25.4
2009-04-29 08:09:13 51°23.335 2°43.476 339.8 12.1 333 25.2
2009-04-29 08:09:18 51°23.35 2°43.464 340.1 12.1 334 25
2009-04-29 08:09:24 51°23.368 2°43.45 340.5 12.1 334 24.8
2009-04-29 08:09:29 51°23.384 2°43.438 341.3 12.1 334 24
2009-04-29 08:09:33 51°23.396 2°43.429 341.5 12.1 334 25.3
2009-04-29 08:09:38 51°23.411 2°43.418 341.8 12.1 335 26.2
2009-04-29 08:09:43 51°23.426 2°43.406 342 12 335 25.7
2009-04-29 08:09:49 51°23.444 2°43.393 342.3 12 336 25.9
2009-04-29 08:09:53 51°23.457 2°43.384 342.7 12 336 25.6
2009-04-29 08:09:59 51°23.475 2°43.371 342.5 12.1 334 25.7
2009-04-29 08:10:03 51°23.487 2°43.361 341.5 12.1 334 25.3
2009-04-29 08:10:09 51°23.505 2°43.347 341.4 12.1 335 25.4
2009-04-29 08:10:13 51°23.517 2°43.338 341.6 12.1 334 25.4
2009-04-29 08:10:18 51°23.532 2°43.327 341.6 12.1 335 25.5
2009-04-29 08:10:24 51°23.55 2°43.313 341.6 12.1 334 25.4
2009-04-29 08:10:28 51°23.562 2°43.304 341.8 12.1 335 25.3
2009-04-29 08:10:33 51°23.577 2°43.292 341.8 12.1 334 26
2009-04-29 08:10:39 51°23.596 2°43.278 341.3 12.1 334 26
2009-04-29 08:10:43 51°23.608 2°43.269 341.3 12.2 334 25.4
2009-04-29 08:10:49 51°23.626 2°43.254 341.2 12.2 334 25.5
2009-04-29 08:10:54 51°23.641 2°43.242 341.2 12.2 334 25.9
2009-04-29 08:10:59 51°23.657 2°43.231 341.5 12.2 334 25.4
2009-04-29 08:11:04 51°23.672 2°43.219 341.5 12.2 334 25.6
2009-04-29 08:11:08 51°23.684 2°43.209 341.2 12.2 334 25.8
2009-04-29 08:11:13 51°23.699 2°43.197 341 12.2 333 25.1
2009-04-29 08:11:19 51°23.717 2°43.183 341 12.2 334 25.4
2009-04-29 08:11:24 51°23.732 2°43.171 341 12.2 333 25.2
2009-04-29 08:11:29 51°23.748 2°43.159 340.5 12.2 334 24.7
2009-04-29 08:11:33 51°23.76 2°43.149 340.5 12.2 334 24.7
2009-04-29 08:11:38 51°23.775 2°43.137 340.8 12.2 334 24.2
2009-04-29 08:11:44 51°23.793 2°43.123 341.1 12.2 334 24.8
2009-04-29 08:11:49 51°23.808 2°43.111 340.7 12.2 333 24.4
2009-04-29 08:11:53 51°23.82 2°43.1 339.8 12.2 332 24.5
2009-04-29 08:11:59 51°23.838 2°43.085 339.6 12.2 333 24.3
2009-04-29 08:12:03 51°23.85 2°43.075 339.1 12.2 331 24.9
2009-04-29 08:12:09 51°23.868 2°43.059 338.8 12.2 333 25.2
2009-04-29 08:12:13 51°23.88 2°43.049 339.2 12.2 332 25.4
2009-04-29 08:12:18 51°23.895 2°43.037 338.9 12.2 331 25.1
2009-04-29 08:12:24 51°23.912 2°43.021 338.5 12.2 331 25.3
2009-04-29 08:12:28 51°23.924 2°43.011 338.5 12.2 332 25.2
2009-04-29 08:12:33 51°23.939 2°42.998 338.4 12.2 331 25.1
2009-04-29 08:12:39 51°23.957 2°42.983 338.3 12.2 332 25
2009-04-29 08:12:43 51°23.969 2°42.973 339 12.2 333 25.3
2009-04-29 08:12:49 51°23.987 2°42.958 339.8 12.2 333 25.6
2009-04-29 08:12:53 51°23.999 2°42.948 340 12.2 333 25.2
2009-04-29 08:12:59 51°24.018 2°42.934 340.4 12.2 334 25
2009-04-29 08:13:04 51°24.033 2°42.922 340.6 12.2 334 25.4
2009-04-29 08:13:08 51°24.045 2°42.912 341.1 12.2 334 25.1
2009-04-29 08:13:13 51°24.06 2°42.901 341.2 12.2 334 25.3
2009-04-29 08:13:19 51°24.078 2°42.886 340.6 12.2 333 25
2009-04-29 08:13:24 51°24.093 2°42.874 340.1 12.2 333 25.1
2009-04-29 08:13:29 51°24.108 2°42.861 339.6 12.2 332 25.3
2009-04-29 08:13:33 51°24.12 2°42.851 339.2 12.2 333 24.9
2009-04-29 08:13:39 51°24.138 2°42.836 339 12.2 332 25
2009-04-29 08:13:44 51°24.154 2°42.823 339.1 12.2 333 24.2
2009-04-29 08:13:49 51°24.168 2°42.81 338.5 12.3 331 24
2009-04-29 08:13:53 51°24.181 2°42.8 338.3 12.2 333 23.3
2009-04-29 08:13:58 51°24.196 2°42.787 338.8 12.3 332 22.7
2009-04-29 08:14:04 51°24.214 2°42.772 338.8 12.2 333 23.2
2009-04-29 08:14:09 51°24.229 2°42.759 338.9 12.2 332 22.3
2009-04-29 08:14:13 51°24.241 2°42.749 338.9 12.2 332 22
2009-04-29 08:14:18 51°24.256 2°42.737 339 12.2 332 22.1
2009-04-29 08:14:24 51°24.274 2°42.721 339 12.2 332 21.6
2009-04-29 08:14:29 51°24.289 2°42.709 339 12.2 332 22.1
2009-04-29 08:14:33 51°24.301 2°42.699 339 12.2 333 22
2009-04-29 08:14:39 51°24.319 2°42.684 339 12.2 332 21.3
2009-04-29 08:14:43 51°24.331 2°42.674 339 12.2 333 21.9
2009-04-29 08:14:49 51°24.349 2°42.659 339.2 12.2 332 21.8
2009-04-29 08:14:53 51°24.361 2°42.649 339.3 12.2 332 22
2009-04-29 08:14:59 51°24.378 2°42.633 339.2 12.2 332 21.9
2009-04-29 08:15:04 51°24.393 2°42.621 339 12.1 332 22.3
2009-04-29 08:15:08 51°24.405 2°42.61 338.2 12.2 331 22.1
2009-04-29 08:15:13 51°24.42 2°42.598 337.9 12.2 332 22.5
2009-04-29 08:15:19 51°24.438 2°42.581 337 12.2 330 22.7
2009-04-29 08:15:23 51°24.45 2°42.571 337 12.2 332 22.9
2009-04-29 08:15:29 51°24.467 2°42.556 337.1 12.2 331 22.8
2009-04-29 08:15:33 51°24.479 2°42.545 337.1 12.2 330 22.5
2009-04-29 08:15:39 51°24.496 2°42.529 336.8 12.1 331 21.5
2009-04-29 08:15:44 51°24.511 2°42.516 336.6 12.1 330 19
2009-04-29 08:15:49 51°24.525 2°42.502 336.1 12.1 330 16.9
2009-04-29 08:15:53 51°24.537 2°42.492 336.1 12.1 330 19.4
2009-04-29 08:15:59 51°24.554 2°42.475 336.3 12 330 22.1
2009-04-29 08:16:04 51°24.569 2°42.462 336.3 12.1 331 22.7
2009-04-29 08:16:09 51°24.583 2°42.449 336.8 12.1 331 23.2
2009-04-29 08:16:13 51°24.595 2°42.439 336.9 12.1 331 23
2009-04-29 08:16:18 51°24.61 2°42.426 336.9 12.1 331 23.8
2009-04-29 08:16:24 51°24.627 2°42.411 336.9 12.1 331 24
2009-04-29 08:16:29 51°24.642 2°42.398 337.2 12.1 331 24.3
2009-04-29 08:16:33 51°24.654 2°42.388 337.2 12.1 331 24.3
2009-04-29 08:16:39 51°24.672 2°42.372 337.3 12.1 331 24.5
2009-04-29 08:16:43 51°24.684 2°42.362 337.2 12.1 331 24.9
2009-04-29 08:16:49 51°24.701 2°42.346 337.1 12.1 332 25.5
2009-04-29 08:16:53 51°24.713 2°42.336 337.4 12.1 332 24.8
2009-04-29 08:16:58 51°24.728 2°42.323 337.5 12.1 332 24.5
2009-04-29 08:17:04 51°24.746 2°42.308 337.4 12.1 331 24.1
2009-04-29 08:17:08 51°24.757 2°42.298 337.7 12.1 332 23.7
2009-04-29 08:17:13 51°24.772 2°42.285 338 12.1 332 24.2
2009-04-29 08:17:19 51°24.79 2°42.27 338.1 12.1 332 24.7
2009-04-29 08:17:23 51°24.802 2°42.26 338.1 12.1 332 25
2009-04-29 08:17:29 51°24.82 2°42.245 338.1 12.1 332 24.3
2009-04-29 08:17:34 51°24.835 2°42.232 338 12.1 332 23.2
2009-04-29 08:17:39 51°24.85 2°42.219 338 12.2 332 22.9
2009-04-29 08:17:44 51°24.865 2°42.207 338 12.1 332 21.8
2009-04-29 08:17:48 51°24.876 2°42.197 337.8 12.1 331 20.3
2009-04-29 08:17:53 51°24.891 2°42.184 337.5 12.1 331 19.5
2009-04-29 08:17:59 51°24.909 2°42.168 337.1 12.1 331 22.2
2009-04-29 08:18:04 51°24.924 2°42.156 337.2 12.1 332 23.3
2009-04-29 08:18:09 51°24.939 2°42.144 338.3 12.1 333 23.7
2009-04-29 08:18:13 51°24.95 2°42.134 338.9 12.1 333 24.5
2009-04-29 08:18:18 51°24.965 2°42.122 339.5 12 334 24.9
2009-04-29 08:18:24 51°24.983 2°42.108 339.8 12 334 25
2009-04-29 08:18:29 51°24.998 2°42.096 339.9 12 333 25.1
2009-04-29 08:18:33 51°25.01 2°42.086 339.1 12.1 333 25.1
2009-04-29 08:18:39 51°25.028 2°42.072 338.9 12.1 333 23.9
2009-04-29 08:18:44 51°25.043 2°42.059 338.3 12.1 332 23
2009-04-29 08:18:49 51°25.058 2°42.047 338 12.1 332 23.8
2009-04-29 08:18:53 51°25.07 2°42.037 338.3 12.1 333 24.1
2009-04-29 08:18:59 51°25.088 2°42.023 339.2 12.1 334 24.5
2009-04-29 08:19:03 51°25.1 2°42.013 339.2 12.1 333 23.6
2009-04-29 08:19:09 51°25.118 2°41.999 339.7 12.1 334 22.2
2009-04-29 08:19:13 51°25.13 2°41.989 339.8 12.1 333 23.8
2009-04-29 08:19:19 51°25.148 2°41.975 339.5 12.1 334 24.8
2009-04-29 08:19:24 51°25.163 2°41.963 339.8 12 334 25
2009-04-29 08:19:29 51°25.178 2°41.951 340.4 12 334 24.8
2009-04-29 08:19:33 51°25.19 2°41.941 339.5 12.1 332 23.7
2009-04-29 08:19:39 51°25.207 2°41.926 338.8 12.1 333 21
2009-04-29 08:19:43 51°25.219 2°41.916 338.9 12.1 332 22
2009-04-29 08:19:49 51°25.237 2°41.902 338.9 12.1 333 22.7
2009-04-29 08:19:54 51°25.252 2°41.89 339.6 12 334 22.1
2009-04-29 08:19:59 51°25.267 2°41.878 340 12 333 22
2009-04-29 08:20:04 51°25.282 2°41.866 339.6 12 333 22.8
2009-04-29 08:20:08 51°25.294 2°41.856 339.6 12 334 22.9
2009-04-29 08:20:13 51°25.309 2°41.844 339.5 12.1 333 23.9
2009-04-29 08:20:19 51°25.327 2°41.829 339.1 12.1 333 24.6
2009-04-29 08:20:24 51°25.342 2°41.817 339.1 12.1 333 24.8
2009-04-29 08:20:29 51°25.357 2°41.805 339.3 12 333 24.5
2009-04-29 08:20:33 51°25.369 2°41.796 339.7 12 334 25
2009-04-29 08:20:38 51°25.383 2°41.784 339.7 12 333 24.9
2009-04-29 08:20:44 51°25.401 2°41.769 338.9 12 332 25.4
2009-04-29 08:20:49 51°25.416 2°41.756 338.7 12.1 332 25.1
2009-04-29 08:20:53 51°25.428 2°41.746 338.2 12.1 331 25.2
2009-04-29 08:20:58 51°25.443 2°41.734 337.7 12 333 25.3
2009-04-29 08:21:04 51°25.46 2°41.718 338.3 12 332 25
2009-04-29 08:21:09 51°25.475 2°41.706 338.8 12.1 332 25.2
2009-04-29 08:21:13 51°25.487 2°41.696 338.6 12.1 331 25.7
2009-04-29 08:21:18 51°25.502 2°41.683 337.6 12.1 332 25.7
2009-04-29 08:21:24 51°25.519 2°41.667 337.3 12.1 331 25.6
2009-04-29 08:21:29 51°25.534 2°41.655 337.1 12.1 332 25.4
2009-04-29 08:21:33 51°25.546 2°41.644 337.4 12.1 331 24.3
2009-04-29 08:21:39 51°25.563 2°41.628 337.4 12.1 331 24.9
2009-04-29 08:21:43 51°25.575 2°41.618 337 12.1 331 25.4